createdAt,value
2022-09-06T00:00:27.367Z,25.00
2022-09-06T00:02:32.893Z,24.90
2022-09-06T00:04:35.877Z,24.90
2022-09-06T00:06:39.933Z,24.80
2022-09-06T00:08:44.890Z,24.80
2022-09-06T00:10:47.641Z,24.80
2022-09-06T00:12:50.422Z,24.80
2022-09-06T00:14:53.741Z,24.80
2022-09-06T00:16:56.474Z,24.80
2022-09-06T00:18:59.487Z,24.80
2022-09-06T00:21:02.308Z,24.70
2022-09-06T00:23:07.004Z,24.70
2022-09-06T00:25:10.442Z,24.70
2022-09-06T00:27:13.230Z,24.80
2022-09-06T00:29:16.050Z,24.70
2022-09-06T00:31:20.518Z,24.70
2022-09-06T00:33:23.384Z,24.80
2022-09-06T00:35:27.702Z,24.80
2022-09-06T00:37:30.432Z,24.80
2022-09-06T00:39:35.200Z,24.80
2022-09-06T00:41:40.175Z,24.80
2022-09-06T00:43:43.284Z,24.70
2022-09-06T00:45:46.336Z,24.70
2022-09-06T00:47:49.527Z,24.80
2022-09-06T00:49:54.375Z,24.80
2022-09-06T00:51:59.808Z,24.80
2022-09-06T00:54:05.308Z,24.80
2022-09-06T00:56:09.752Z,24.80
2022-09-06T00:58:13.198Z,24.80
2022-09-06T01:00:16.145Z,24.80
2022-09-06T01:02:20.083Z,24.80
2022-09-06T01:04:23.369Z,24.70
2022-09-06T01:06:31.639Z,24.70
2022-09-06T01:08:44.473Z,24.70
2022-09-06T01:11:05.820Z,24.70
2022-09-06T01:13:23.232Z,24.70
2022-09-06T01:15:34.288Z,24.70
2022-09-06T01:17:48.034Z,24.70
2022-09-06T01:20:20.180Z,24.80
2022-09-06T01:22:44.506Z,24.80
2022-09-06T01:25:07.975Z,24.80
2022-09-06T01:27:35.692Z,24.80
2022-09-06T01:29:46.371Z,24.80
2022-09-06T01:31:55.681Z,24.80
2022-09-06T01:34:20.303Z,24.70
2022-09-06T01:36:28.210Z,24.70
2022-09-06T01:38:31.260Z,24.60
2022-09-06T01:40:36.378Z,24.60
2022-09-06T01:42:42.464Z,24.60
2022-09-06T01:44:50.346Z,24.60
2022-09-06T01:47:01.001Z,24.70
2022-09-06T01:49:19.532Z,24.70
2022-09-06T01:51:28.887Z,24.60
2022-09-06T01:53:46.851Z,24.50
2022-09-06T01:55:59.377Z,24.50
2022-09-06T01:58:22.039Z,24.50
2022-09-06T02:00:26.668Z,24.40
2022-09-06T02:02:38.494Z,24.40
2022-09-06T02:04:45.639Z,24.30
2022-09-06T02:06:54.710Z,24.30
2022-09-06T02:09:02.357Z,24.30
2022-09-06T02:11:07.560Z,24.20
2022-09-06T02:13:12.918Z,24.30
2022-09-06T02:15:20.259Z,24.30
2022-09-06T02:17:27.787Z,24.30
2022-09-06T02:19:37.510Z,24.20
2022-09-06T02:21:45.015Z,24.20
2022-09-06T02:23:49.659Z,24.30
2022-09-06T02:25:56.748Z,24.20
2022-09-06T02:27:59.753Z,24.20
2022-09-06T02:30:03.811Z,24.20
2022-09-06T02:32:12.448Z,24.10
2022-09-06T02:34:19.227Z,24.10
2022-09-06T02:36:22.241Z,24.10
2022-09-06T02:38:27.636Z,24.10
2022-09-06T02:40:30.556Z,24.10
2022-09-06T02:42:33.321Z,24.10
2022-09-06T02:44:36.060Z,24.10
2022-09-06T02:46:38.783Z,24.10
2022-09-06T02:48:41.539Z,24.10
2022-09-06T02:50:45.734Z,24.10
2022-09-06T02:53:01.217Z,24.20
2022-09-06T02:55:04.613Z,24.20
2022-09-06T02:57:07.354Z,24.10
2022-09-06T02:59:10.104Z,24.10
2022-09-06T03:01:12.895Z,24.10
2022-09-06T03:03:16.157Z,24.10
2022-09-06T03:05:19.005Z,24.10
2022-09-06T03:07:23.109Z,24.10
2022-09-06T03:09:26.348Z,24.10
2022-09-06T03:11:29.602Z,24.00
2022-09-06T03:13:32.332Z,24.10
2022-09-06T03:15:35.047Z,24.00
2022-09-06T03:17:38.033Z,24.00
2022-09-06T03:19:40.764Z,24.00
2022-09-06T03:21:43.492Z,23.90
2022-09-06T03:23:47.853Z,23.90
2022-09-06T03:25:51.029Z,23.90
2022-09-06T03:27:53.781Z,23.90
2022-09-06T03:29:56.637Z,23.80
2022-09-06T03:31:59.421Z,23.80
2022-09-06T03:34:02.176Z,23.80
2022-09-06T03:36:05.289Z,23.70
2022-09-06T03:38:08.052Z,23.70
2022-09-06T03:40:12.744Z,23.60
2022-09-06T03:42:15.505Z,23.60
2022-09-06T03:44:18.243Z,23.60
2022-09-06T03:46:21.059Z,23.60
2022-09-06T03:48:25.571Z,23.50
2022-09-06T03:50:28.405Z,23.50
2022-09-06T03:52:31.208Z,23.50
2022-09-06T03:54:33.998Z,23.50
2022-09-06T03:56:38.229Z,23.50
2022-09-06T03:58:40.932Z,23.50
2022-09-06T04:00:44.512Z,23.40
2022-09-06T04:02:49.267Z,23.50
2022-09-06T04:04:55.431Z,23.40
2022-09-06T04:06:58.204Z,23.40
2022-09-06T04:09:00.943Z,23.40
2022-09-06T04:11:04.242Z,23.40
2022-09-06T04:13:08.328Z,23.40
2022-09-06T04:15:11.570Z,23.40
2022-09-06T04:17:14.683Z,23.40
2022-09-06T04:19:17.748Z,23.30
2022-09-06T04:21:20.691Z,23.30
2022-09-06T04:23:24.655Z,23.30
2022-09-06T04:25:27.520Z,23.30
2022-09-06T04:27:30.284Z,23.30
2022-09-06T04:29:34.392Z,23.30
2022-09-06T04:31:37.127Z,23.30
2022-09-06T04:33:40.728Z,23.30
2022-09-06T04:35:43.437Z,23.30
2022-09-06T04:37:46.183Z,23.30
2022-09-06T04:39:49.014Z,23.40
2022-09-06T04:41:51.834Z,23.40
2022-09-06T04:43:54.556Z,23.30
2022-09-06T04:46:04.526Z,23.30
2022-09-06T04:48:07.342Z,23.30
2022-09-06T04:50:10.557Z,23.30
2022-09-06T04:52:13.559Z,23.20
2022-09-06T04:54:16.308Z,23.30
2022-09-06T04:56:20.955Z,23.40
2022-09-06T04:58:23.768Z,23.30
2022-09-06T05:00:26.645Z,23.40
2022-09-06T05:02:30.743Z,23.40
2022-09-06T05:04:35.453Z,23.40
2022-09-06T05:06:39.293Z,23.40
2022-09-06T05:08:42.724Z,23.50
2022-09-06T05:10:45.492Z,23.40
2022-09-06T05:12:49.606Z,23.40
2022-09-06T05:14:52.334Z,23.40
2022-09-06T05:16:55.525Z,23.40
2022-09-06T05:18:59.713Z,23.40
2022-09-06T05:21:03.340Z,23.50
2022-09-06T05:23:06.091Z,23.50
2022-09-06T05:25:10.238Z,23.50
2022-09-06T05:27:13.228Z,23.50
2022-09-06T05:29:16.002Z,23.50
2022-09-06T05:31:27.889Z,23.50
2022-09-06T05:33:30.664Z,23.50
2022-09-06T05:35:34.757Z,23.50
2022-09-06T05:37:37.512Z,23.60
2022-09-06T05:39:40.357Z,23.60
2022-09-06T05:41:43.260Z,23.60
2022-09-06T05:43:46.706Z,23.60
2022-09-06T05:45:49.602Z,23.60
2022-09-06T05:47:52.468Z,23.70
2022-09-06T05:49:55.359Z,23.70
2022-09-06T05:51:59.605Z,23.70
2022-09-06T05:54:02.388Z,23.70
2022-09-06T05:56:06.588Z,23.70
2022-09-06T05:58:09.454Z,23.60
2022-09-06T06:00:13.720Z,23.70
2022-09-06T06:02:16.576Z,23.70
2022-09-06T06:04:20.202Z,23.70
2022-09-06T06:06:23.604Z,23.70
2022-09-06T06:08:28.012Z,23.60
2022-09-06T06:10:32.047Z,23.70
2022-09-06T06:12:37.099Z,23.70
2022-09-06T06:14:39.888Z,23.70
2022-09-06T06:16:42.698Z,23.70
2022-09-06T06:18:51.275Z,23.70
2022-09-06T06:21:08.628Z,23.70
2022-09-06T06:23:11.445Z,23.70
2022-09-06T06:25:15.948Z,23.70
2022-09-06T06:27:18.686Z,23.80
2022-09-06T06:29:21.430Z,23.90
2022-09-06T06:31:24.657Z,23.90
2022-09-06T06:33:27.883Z,24.00
2022-09-06T06:35:30.617Z,24.10
2022-09-06T06:37:34.212Z,24.20
2022-09-06T06:39:37.042Z,24.30
2022-09-06T06:41:41.207Z,24.30
2022-09-06T06:43:44.349Z,24.30
2022-09-06T06:45:50.775Z,24.30
2022-09-06T06:47:53.611Z,24.30
2022-09-06T06:49:56.452Z,24.30
2022-09-06T06:51:59.191Z,24.40
2022-09-06T06:54:01.925Z,24.30
2022-09-06T06:56:15.636Z,24.30
2022-09-06T06:58:20.168Z,24.40
2022-09-06T07:00:28.059Z,24.40
2022-09-06T07:02:31.042Z,24.40
2022-09-06T07:04:33.992Z,24.40
2022-09-06T07:09:11.495Z,24.50
2022-09-06T07:11:18.628Z,24.60
2022-09-06T07:13:24.675Z,24.70
2022-09-06T07:15:27.604Z,24.70
2022-09-06T07:17:30.662Z,24.70
2022-09-06T07:21:59.323Z,24.80
2022-09-06T07:26:08.165Z,24.80
2022-09-06T07:28:11.111Z,24.80
2022-09-06T07:30:15.599Z,24.80
2022-09-06T07:32:18.362Z,24.80
2022-09-06T07:34:22.168Z,24.90
2022-09-06T07:36:25.103Z,25.10
2022-09-06T07:38:28.716Z,25.10
2022-09-06T07:40:31.895Z,25.10
2022-09-06T07:42:36.831Z,25.10
2022-09-06T07:44:41.138Z,25.10
2022-09-06T07:46:45.240Z,24.90
2022-09-06T07:48:49.647Z,24.80
2022-09-06T07:50:53.676Z,24.80
2022-09-06T07:55:10.004Z,24.90
2022-09-06T07:57:13.113Z,25.00
2022-09-06T07:59:16.193Z,25.00
2022-09-06T08:01:28.196Z,25.10
2022-09-06T08:03:32.389Z,25.20
2022-09-06T08:10:20.794Z,25.60
2022-09-06T08:12:23.952Z,25.70
2022-09-06T08:14:26.740Z,25.90
2022-09-06T08:16:31.076Z,26.00
2022-09-06T08:18:38.389Z,26.10
2022-09-06T08:20:41.134Z,26.10
2022-09-06T08:22:43.944Z,26.20
2022-09-06T08:24:46.737Z,26.20
2022-09-06T08:26:49.849Z,26.10
2022-09-06T08:28:55.550Z,26.10
2022-09-06T08:31:06.672Z,26.00
2022-09-06T08:33:09.547Z,26.10
2022-09-06T08:35:13.628Z,26.10
2022-09-06T08:37:16.396Z,26.10
2022-09-06T08:39:19.426Z,26.10
2022-09-06T08:41:27.374Z,26.20
2022-09-06T08:43:30.241Z,26.20
2022-09-06T08:45:32.992Z,26.20
2022-09-06T08:47:36.312Z,26.20
2022-09-06T08:49:42.532Z,26.20
2022-09-06T08:52:14.412Z,26.30
2022-09-06T08:54:29.964Z,26.30
2022-09-06T08:56:36.553Z,26.30
2022-09-06T08:58:54.404Z,26.30
2022-09-06T09:01:01.279Z,26.30
2022-09-06T09:03:12.060Z,26.30
2022-09-06T09:05:25.696Z,26.40
2022-09-06T09:07:39.319Z,26.50
2022-09-06T09:09:42.129Z,26.60
2022-09-06T09:11:50.783Z,26.70
2022-09-06T09:13:59.196Z,26.70
2022-09-06T09:16:02.388Z,26.80
2022-09-06T09:18:05.372Z,26.90
2022-09-06T09:20:09.363Z,26.90
2022-09-06T09:22:13.656Z,26.80
2022-09-06T09:24:17.789Z,26.80
2022-09-06T09:26:23.179Z,26.80
2022-09-06T09:28:26.013Z,26.70
2022-09-06T09:30:49.063Z,26.80
2022-09-06T09:32:52.696Z,26.80
2022-09-06T09:34:56.800Z,26.90
2022-09-06T09:39:42.450Z,27.10
2022-09-06T09:41:51.240Z,27.30
2022-09-06T09:44:02.263Z,27.30
2022-09-06T09:46:16.408Z,27.40
2022-09-06T09:48:23.797Z,27.50
2022-09-06T09:50:29.364Z,27.50
2022-09-06T09:52:32.888Z,27.50
2022-09-06T09:54:39.646Z,27.70
2022-09-06T09:56:47.499Z,27.80
2022-09-06T09:58:50.404Z,28.00
2022-09-06T10:01:11.615Z,28.10
2022-09-06T10:03:16.055Z,28.10
2022-09-06T10:05:21.650Z,28.10
2022-09-06T10:07:25.432Z,28.20
2022-09-06T10:09:34.843Z,28.30
2022-09-06T10:11:48.814Z,28.30
2022-09-06T10:14:12.014Z,28.30
2022-09-06T10:16:14.922Z,28.40
2022-09-06T10:18:30.680Z,28.50
2022-09-06T10:20:42.137Z,28.60
2022-09-06T10:22:51.667Z,28.70
2022-09-06T10:25:10.834Z,28.70
2022-09-06T10:27:15.067Z,28.70
2022-09-06T10:29:30.275Z,28.80
2022-09-06T10:31:47.503Z,29.00
2022-09-06T10:34:02.007Z,29.10
2022-09-06T10:36:05.217Z,29.30
2022-09-06T10:38:24.268Z,29.40
2022-09-06T10:40:34.277Z,29.50
2022-09-06T10:42:43.780Z,29.60
2022-09-06T10:45:05.014Z,29.60
2022-09-06T10:47:12.675Z,29.60
2022-09-06T10:49:19.469Z,29.80
2022-09-06T10:51:32.890Z,29.90
2022-09-06T10:53:45.542Z,29.90
2022-09-06T10:55:53.599Z,29.90
2022-09-06T10:58:20.419Z,29.90
2022-09-06T11:00:25.031Z,29.90
2022-09-06T11:02:40.120Z,29.90
2022-09-06T11:07:17.144Z,29.90
2022-09-06T11:09:27.957Z,29.80
2022-09-06T11:11:42.339Z,29.80
2022-09-06T11:13:45.204Z,29.70
2022-09-06T11:15:55.206Z,29.80
2022-09-06T11:18:03.574Z,29.80
2022-09-06T11:20:15.392Z,29.80
2022-09-06T11:22:46.652Z,29.80
2022-09-06T11:25:17.570Z,29.70
2022-09-06T11:27:28.122Z,29.70
2022-09-06T11:29:33.239Z,29.60
2022-09-06T11:34:22.609Z,29.80
2022-09-06T11:36:35.574Z,30.00
2022-09-06T11:38:38.627Z,30.00
2022-09-06T11:40:44.916Z,30.10
2022-09-06T11:43:15.572Z,30.10
2022-09-06T11:45:22.131Z,30.30
2022-09-06T11:47:40.202Z,30.30
2022-09-06T11:49:43.037Z,30.30
2022-09-06T11:51:46.750Z,30.30
2022-09-06T11:54:22.743Z,30.30
2022-09-06T11:56:36.948Z,30.40
2022-09-06T11:58:51.162Z,30.40
2022-09-06T12:01:35.213Z,30.50
2022-09-06T12:04:05.556Z,30.60
2022-09-06T12:06:19.077Z,30.50
2022-09-06T12:08:34.604Z,30.60
2022-09-06T12:10:52.372Z,30.60
2022-09-06T12:12:55.159Z,30.70
2022-09-06T12:15:22.587Z,30.80
2022-09-06T12:17:25.745Z,30.80
2022-09-06T12:19:45.258Z,30.80
2022-09-06T12:21:52.159Z,30.80
2022-09-06T12:23:56.064Z,31.00
2022-09-06T12:25:59.054Z,31.00
2022-09-06T12:28:03.502Z,31.00
2022-09-06T12:30:10.087Z,31.00
2022-09-06T12:32:13.770Z,31.00
2022-09-06T12:34:22.524Z,31.10
2022-09-06T12:36:30.248Z,31.10
2022-09-06T12:38:33.188Z,31.20
2022-09-06T12:40:40.815Z,31.20
2022-09-06T12:42:47.814Z,31.30
2022-09-06T12:44:53.847Z,31.30
2022-09-06T12:47:07.635Z,31.30
2022-09-06T12:49:12.521Z,31.20
2022-09-06T12:51:21.856Z,31.30
2022-09-06T12:53:27.758Z,31.30
2022-09-06T12:55:33.221Z,31.40
2022-09-06T12:57:36.004Z,31.30
2022-09-06T12:59:38.793Z,31.30
2022-09-06T13:01:45.811Z,31.40
2022-09-06T13:03:58.261Z,31.50
2022-09-06T13:06:05.380Z,31.50
2022-09-06T13:08:14.020Z,31.50
2022-09-06T13:10:22.223Z,31.50
2022-09-06T13:12:28.128Z,31.50
2022-09-06T13:14:33.293Z,31.50
2022-09-06T13:16:39.209Z,31.50
2022-09-06T13:18:42.087Z,31.60
2022-09-06T13:20:44.905Z,31.60
2022-09-06T13:22:50.723Z,31.60
2022-09-06T13:24:57.523Z,31.70
2022-09-06T13:27:01.597Z,31.70
2022-09-06T13:29:13.603Z,31.70
2022-09-06T13:31:22.512Z,31.70
2022-09-06T13:33:26.862Z,31.70
2022-09-06T13:35:32.773Z,31.70
2022-09-06T13:37:39.386Z,31.80
2022-09-06T13:39:44.371Z,31.90
2022-09-06T13:41:55.277Z,31.90
2022-09-06T13:44:02.228Z,31.90
2022-09-06T13:46:07.184Z,31.80
2022-09-06T13:48:28.484Z,31.80
2022-09-06T13:50:33.443Z,31.70
2022-09-06T13:52:39.231Z,31.80
2022-09-06T13:54:42.045Z,31.70
2022-09-06T13:56:45.603Z,31.70
2022-09-06T13:58:49.532Z,31.70
2022-09-06T14:00:54.453Z,31.70
2022-09-06T14:02:57.977Z,31.80
2022-09-06T14:05:02.654Z,31.90
2022-09-06T14:07:05.727Z,31.90
2022-09-06T14:09:09.270Z,31.90
2022-09-06T14:11:13.357Z,31.80
2022-09-06T14:13:16.493Z,31.80
2022-09-06T14:15:19.285Z,31.80
2022-09-06T14:17:23.429Z,31.80
2022-09-06T14:19:26.419Z,31.90
2022-09-06T14:21:29.272Z,31.90
2022-09-06T14:23:32.100Z,31.90
2022-09-06T14:25:36.695Z,31.90
2022-09-06T14:27:39.480Z,31.80
2022-09-06T14:29:42.218Z,31.80
2022-09-06T14:31:44.984Z,31.80
2022-09-06T14:33:52.318Z,31.80
2022-09-06T14:35:55.260Z,31.80
2022-09-06T14:37:58.087Z,31.80
2022-09-06T14:40:01.252Z,31.70
2022-09-06T14:42:06.771Z,31.70
2022-09-06T14:44:10.353Z,31.70
2022-09-06T14:46:15.148Z,31.70
2022-09-06T14:48:18.002Z,31.70
2022-09-06T14:50:22.133Z,31.70
2022-09-06T14:52:25.154Z,31.60
2022-09-06T14:54:29.388Z,31.60
2022-09-06T14:56:32.544Z,31.60
2022-09-06T14:58:37.444Z,31.50
2022-09-06T15:00:40.238Z,31.40
2022-09-06T15:02:44.069Z,31.30
2022-09-06T15:04:47.503Z,31.30
2022-09-06T15:06:51.735Z,31.30
2022-09-06T15:08:59.491Z,31.30
2022-09-06T15:11:02.670Z,31.30
2022-09-06T15:13:05.504Z,31.30
2022-09-06T15:15:08.820Z,31.20
2022-09-06T15:17:11.660Z,31.20
2022-09-06T15:19:16.741Z,31.10
2022-09-06T15:21:19.671Z,31.10
2022-09-06T15:23:34.275Z,31.00
2022-09-06T15:25:37.103Z,31.00
2022-09-06T15:27:39.867Z,31.00
2022-09-06T15:29:45.574Z,31.00
2022-09-06T15:31:50.607Z,31.00
2022-09-06T15:33:56.459Z,31.00
2022-09-06T15:36:00.596Z,31.00
2022-09-06T15:38:03.482Z,31.00
2022-09-06T15:40:09.358Z,30.90
2022-09-06T15:42:12.223Z,31.00
2022-09-06T15:44:18.354Z,30.90
2022-09-06T15:46:41.049Z,30.90
2022-09-06T15:48:45.318Z,30.90
2022-09-06T15:50:51.676Z,30.80
2022-09-06T15:52:59.174Z,30.90
2022-09-06T15:55:19.889Z,30.90
2022-09-06T15:57:24.311Z,30.80
2022-09-06T15:59:29.988Z,30.80
2022-09-06T16:01:34.769Z,30.80
2022-09-06T16:03:39.172Z,30.70
2022-09-06T16:08:05.213Z,30.70
2022-09-06T16:10:08.264Z,30.80
2022-09-06T16:12:11.032Z,30.80
2022-09-06T16:14:16.405Z,30.70
2022-09-06T16:16:19.734Z,30.70
2022-09-06T16:18:23.919Z,30.70
2022-09-06T16:20:28.645Z,30.80
2022-09-06T16:22:33.327Z,30.80
2022-09-06T16:24:36.267Z,30.80
2022-09-06T16:26:40.794Z,30.80
2022-09-06T16:28:45.868Z,30.70
2022-09-06T16:30:50.055Z,30.60
2022-09-06T16:32:55.022Z,30.60
2022-09-06T16:34:58.102Z,30.60
2022-09-06T16:37:00.915Z,30.60
2022-09-06T16:39:04.290Z,30.60
2022-09-06T16:41:14.400Z,30.50
2022-09-06T16:43:17.204Z,30.50
2022-09-06T16:45:20.047Z,30.40
2022-09-06T16:47:27.305Z,30.30
2022-09-06T16:49:30.143Z,30.20
2022-09-06T16:51:33.552Z,30.20
2022-09-06T16:53:36.343Z,30.20
2022-09-06T16:55:39.194Z,30.00
2022-09-06T16:57:41.985Z,30.00
2022-09-06T16:59:45.275Z,29.90
2022-09-06T17:01:48.292Z,29.90
2022-09-06T17:03:52.771Z,29.90
2022-09-06T17:05:55.829Z,29.90
2022-09-06T17:07:58.637Z,29.90
2022-09-06T17:10:01.437Z,29.80
2022-09-06T17:12:04.701Z,29.80
2022-09-06T17:14:07.658Z,29.70
2022-09-06T17:16:28.035Z,29.60
2022-09-06T17:18:30.939Z,29.60
2022-09-06T17:20:35.133Z,29.50
2022-09-06T17:22:38.320Z,29.40
2022-09-06T17:24:42.019Z,29.30
2022-09-06T17:26:44.969Z,29.20
2022-09-06T17:28:48.887Z,29.10
2022-09-06T17:30:51.948Z,29.10
2022-09-06T17:32:55.453Z,29.00
2022-09-06T17:34:58.667Z,29.00
2022-09-06T17:37:02.830Z,29.00
2022-09-06T17:39:08.426Z,28.90
2022-09-06T17:41:21.591Z,28.80
2022-09-06T17:43:24.476Z,28.70
2022-09-06T17:45:27.420Z,28.70
2022-09-06T17:47:30.189Z,28.60
2022-09-06T17:49:33.052Z,28.50
2022-09-06T17:51:36.255Z,28.60
2022-09-06T17:53:41.238Z,28.50
2022-09-06T17:55:45.304Z,28.40
2022-09-06T17:57:48.154Z,28.40
2022-09-06T17:59:50.982Z,28.40
2022-09-06T18:01:53.874Z,28.40
2022-09-06T18:03:57.803Z,28.30
2022-09-06T18:06:04.972Z,28.20
2022-09-06T18:08:08.606Z,28.10
2022-09-06T18:10:15.082Z,28.10
2022-09-06T18:12:19.581Z,28.00
2022-09-06T18:14:22.764Z,27.90
2022-09-06T18:16:26.806Z,27.90
2022-09-06T18:18:30.001Z,27.80
2022-09-06T18:20:32.885Z,27.80
2022-09-06T18:22:38.080Z,27.70
2022-09-06T18:24:40.880Z,27.70
2022-09-06T18:26:45.998Z,27.60
2022-09-06T18:28:48.846Z,27.50
2022-09-06T18:30:54.680Z,27.50
2022-09-06T18:32:57.507Z,27.50
2022-09-06T18:35:00.567Z,27.40
2022-09-06T18:37:06.225Z,27.40
2022-09-06T18:39:09.078Z,27.30
2022-09-06T18:41:34.054Z,27.30
2022-09-06T18:43:40.234Z,27.20
2022-09-06T18:45:43.145Z,27.20
2022-09-06T18:47:46.232Z,27.20
2022-09-06T18:49:49.272Z,27.20
2022-09-06T18:51:52.207Z,27.10
2022-09-06T18:53:57.070Z,27.10
2022-09-06T18:56:00.357Z,27.10
2022-09-06T18:58:03.172Z,27.00
2022-09-06T19:00:08.598Z,26.90
2022-09-06T19:02:11.495Z,26.80
2022-09-06T19:04:15.263Z,26.90
2022-09-06T19:06:20.564Z,26.80
2022-09-06T19:08:23.515Z,26.80
2022-09-06T19:10:26.472Z,26.70
2022-09-06T19:12:29.286Z,26.60
2022-09-06T19:14:33.697Z,26.50
2022-09-06T19:16:37.857Z,26.50
2022-09-06T19:18:41.631Z,26.50
2022-09-06T19:20:44.412Z,26.50
2022-09-06T19:22:47.373Z,26.40
2022-09-06T19:24:50.169Z,26.30
2022-09-06T19:26:55.161Z,26.30
2022-09-06T19:28:59.776Z,26.30
2022-09-06T19:31:08.150Z,26.20
2022-09-06T19:33:12.290Z,26.20
2022-09-06T19:35:15.204Z,26.10
2022-09-06T19:37:20.173Z,26.10
2022-09-06T19:39:22.923Z,25.90
2022-09-06T19:41:26.561Z,25.90
2022-09-06T19:43:29.476Z,26.00
2022-09-06T19:45:36.702Z,25.90
2022-09-06T19:47:39.508Z,25.90
2022-09-06T19:49:43.744Z,25.90
2022-09-06T19:51:48.715Z,25.90
2022-09-06T19:53:53.932Z,25.80
2022-09-06T19:55:56.849Z,25.80
2022-09-06T19:57:59.805Z,25.80
2022-09-06T20:00:02.988Z,25.80
2022-09-06T20:02:05.944Z,25.80
2022-09-06T20:04:10.674Z,25.80
2022-09-06T20:06:15.092Z,25.80
2022-09-06T20:08:17.957Z,25.80
2022-09-06T20:10:20.774Z,25.80
2022-09-06T20:12:24.313Z,25.70
2022-09-06T20:14:27.309Z,25.70
2022-09-06T20:16:30.438Z,25.70
2022-09-06T20:18:33.961Z,25.70
2022-09-06T20:20:36.848Z,25.70
2022-09-06T20:22:40.924Z,25.70
2022-09-06T20:24:43.829Z,25.70
2022-09-06T20:26:47.116Z,25.70
2022-09-06T20:28:50.220Z,25.80
2022-09-06T20:30:52.991Z,25.70
2022-09-06T20:32:55.869Z,25.60
2022-09-06T20:34:59.774Z,25.60
2022-09-06T20:37:02.681Z,25.60
2022-09-06T20:39:06.920Z,25.70
2022-09-06T20:41:11.585Z,25.70
2022-09-06T20:43:14.581Z,25.70
2022-09-06T20:45:19.143Z,25.70
2022-09-06T20:47:21.863Z,25.60
2022-09-06T20:49:24.657Z,25.60
2022-09-06T20:51:27.640Z,25.60
2022-09-06T20:53:31.583Z,25.60
2022-09-06T20:55:35.647Z,25.50
2022-09-06T20:57:38.440Z,25.40
2022-09-06T20:59:41.185Z,25.40
2022-09-06T21:01:46.148Z,25.40
2022-09-06T21:03:50.312Z,25.30
2022-09-06T21:05:54.114Z,25.30
2022-09-06T21:07:57.152Z,25.20
2022-09-06T21:09:59.946Z,25.20
2022-09-06T21:12:04.738Z,25.20
2022-09-06T21:14:09.329Z,25.20
2022-09-06T21:16:12.159Z,25.10
2022-09-06T21:18:14.977Z,25.10
2022-09-06T21:20:17.939Z,25.10
2022-09-06T21:22:20.688Z,25.10
2022-09-06T21:24:23.502Z,25.10
2022-09-06T21:26:26.511Z,25.10
2022-09-06T21:28:32.409Z,25.10
2022-09-06T21:30:35.298Z,25.00
2022-09-06T21:32:38.112Z,25.10
2022-09-06T21:34:40.852Z,25.00
2022-09-06T21:36:43.656Z,25.00
2022-09-06T21:38:47.408Z,25.00
2022-09-06T21:40:50.262Z,25.00
2022-09-06T21:42:53.823Z,24.90
2022-09-06T21:44:57.967Z,25.00
2022-09-06T21:47:01.273Z,25.00
2022-09-06T21:49:08.987Z,25.00
2022-09-06T21:51:14.191Z,24.90
2022-09-06T21:53:18.051Z,24.90
2022-09-06T21:55:20.996Z,24.80
2022-09-06T21:57:23.912Z,24.80
2022-09-06T21:59:26.993Z,24.70
2022-09-06T22:01:33.521Z,24.70
2022-09-06T22:03:39.033Z,24.70
2022-09-06T22:05:41.775Z,24.50
2022-09-06T22:07:44.554Z,24.50
2022-09-06T22:09:48.844Z,24.50
2022-09-06T22:11:52.615Z,24.50
2022-09-06T22:13:58.453Z,24.50
2022-09-06T22:16:07.479Z,24.50
2022-09-06T22:18:12.353Z,24.50
2022-09-06T22:20:15.518Z,24.50
2022-09-06T22:22:18.228Z,24.40
2022-09-06T22:24:21.041Z,24.40
2022-09-06T22:26:24.851Z,24.40
2022-09-06T22:28:27.590Z,24.40
2022-09-06T22:30:30.856Z,24.40
2022-09-06T22:32:33.618Z,24.30
2022-09-06T22:34:37.925Z,24.30
2022-09-06T22:36:41.154Z,24.40
2022-09-06T22:38:44.121Z,24.40
2022-09-06T22:40:47.191Z,24.30
2022-09-06T22:42:49.907Z,24.40
2022-09-06T22:44:53.298Z,24.40
2022-09-06T22:46:56.544Z,24.40
2022-09-06T22:48:59.753Z,24.40
2022-09-06T22:51:04.711Z,24.40
2022-09-06T22:53:07.804Z,24.40
2022-09-06T22:55:11.665Z,24.40
2022-09-06T22:57:14.409Z,24.40
2022-09-06T22:59:17.284Z,24.40
2022-09-06T23:01:20.145Z,24.40
2022-09-06T23:03:23.506Z,24.40
2022-09-06T23:05:26.390Z,24.40
2022-09-06T23:07:30.661Z,24.40
2022-09-06T23:09:33.405Z,24.40
2022-09-06T23:11:37.958Z,24.30
2022-09-06T23:13:43.565Z,24.40
2022-09-06T23:15:47.731Z,24.40
2022-09-06T23:17:50.538Z,24.30
2022-09-06T23:19:53.335Z,24.30
2022-09-06T23:21:56.126Z,24.40
2022-09-06T23:24:00.289Z,24.40
2022-09-06T23:26:08.057Z,24.40
2022-09-06T23:28:10.854Z,24.40
2022-09-06T23:30:13.746Z,24.30
2022-09-06T23:32:17.020Z,24.30
2022-09-06T23:34:19.728Z,24.30
2022-09-06T23:36:22.851Z,24.30
2022-09-06T23:38:25.600Z,24.30
2022-09-06T23:40:29.677Z,24.30
2022-09-06T23:42:32.427Z,24.30
2022-09-06T23:44:35.188Z,24.20
2022-09-06T23:46:37.947Z,24.20
2022-09-06T23:48:41.010Z,24.10
2022-09-06T23:50:44.822Z,24.10
2022-09-06T23:52:47.802Z,24.10
2022-09-06T23:54:50.555Z,24.10
2022-09-06T23:56:54.609Z,24.10
2022-09-06T23:58:57.614Z,24.10
